Tunis, Tunisia
Current Conditions -  °F | °C
As of 11:30 AM on Tuesday 21 Oct 2014 (Local Time) from DTTA Reporting Station
Few Clouds Few Clouds  
Wind Chill: 79°   Ceiling: Unl
Heat Index: 81°   Visibility: 6mi
Dew Point: 64°   Wind: 2mph
Humidity: 61%   Direction: NA
Pressure: 30.09"   Gusts: NA
Location:  36.84°N, 10.22°E
Report Text: DTTA 211030Z VRB02KT 9999 FEW030 26/18 Q1019 NOSIG
Loading
Personal Weather Stations






























Interactive Weather Map
Tropical Storm Tracking
New forecast layout! Learn more

10-Day Weather Forecast

Advertisements
Track Severe Weather on mobile